createdAt,value
2022-12-31T00:05:05.813Z,77.54
2022-12-31T00:43:49.978Z,77.88
2022-12-31T01:05:36.984Z,75.86
2022-12-31T01:27:22.699Z,75.14
2022-12-31T01:49:23.639Z,74.97
2022-12-31T02:11:25.231Z,74.81
2022-12-31T02:43:49.676Z,74.28
2022-12-31T03:05:39.326Z,74.71
2022-12-31T03:27:25.032Z,74.10
2022-12-31T03:49:10.707Z,73.51
2022-12-31T04:10:56.541Z,73.17
2022-12-31T04:32:42.287Z,73.83
2022-12-31T04:54:28.007Z,74.01
2022-12-31T05:16:13.765Z,74.37
2022-12-31T05:43:43.089Z,76.38
2022-12-31T06:05:28.715Z,77.34
2022-12-31T06:27:14.343Z,78.44
2022-12-31T06:49:00.410Z,79.59
2022-12-31T07:10:52.009Z,80.01
2022-12-31T07:32:52.183Z,80.09
2022-12-31T07:54:37.940Z,79.82
2022-12-31T08:16:24.707Z,78.15
2022-12-31T08:38:18.589Z,76.74
2022-12-31T09:00:12.192Z,75.89
2022-12-31T09:21:59.046Z,74.83
2022-12-31T09:44:14.550Z,74.74
2022-12-31T10:06:21.278Z,71.57
2022-12-31T10:28:26.686Z,67.90
2022-12-31T10:50:50.306Z,67.07
2022-12-31T11:13:06.218Z,66.50
2022-12-31T11:35:19.164Z,65.35
2022-12-31T11:57:15.345Z,65.52
2022-12-31T12:19:09.363Z,65.70
2022-12-31T12:41:01.323Z,65.04
2022-12-31T13:03:21.409Z,64.77
2022-12-31T13:25:25.310Z,65.15
2022-12-31T13:47:16.921Z,65.75
2022-12-31T14:09:02.723Z,66.15
2022-12-31T14:44:15.697Z,66.99
2022-12-31T15:06:08.998Z,67.53
2022-12-31T15:27:52.620Z,68.20
2022-12-31T15:49:42.647Z,68.52
2022-12-31T16:11:29.758Z,68.42
2022-12-31T16:33:14.813Z,68.33
2022-12-31T16:54:58.750Z,68.02
2022-12-31T17:16:59.568Z,68.16
2022-12-31T17:43:44.739Z,68.36
2022-12-31T18:05:30.543Z,68.11
2022-12-31T18:27:19.561Z,67.59
2022-12-31T18:49:05.542Z,66.84
2022-12-31T19:10:53.721Z,66.28
2022-12-31T19:32:39.407Z,65.87
2022-12-31T19:54:25.205Z,65.41
2022-12-31T20:16:13.388Z,65.59
2022-12-31T20:37:59.161Z,64.99
2022-12-31T20:59:44.950Z,64.57
2022-12-31T21:21:30.773Z,63.76
2022-12-31T21:43:17.289Z,63.22
2022-12-31T22:05:05.687Z,63.25
2022-12-31T22:26:56.849Z,64.59
2022-12-31T22:48:43.410Z,66.10
2022-12-31T23:10:46.609Z,66.95
2022-12-31T23:32:32.293Z,67.16
2022-12-31T23:54:18.111Z,67.18
